createdAt,value
2017-09-20T00:00:23.341Z,21.25
2017-09-20T00:01:31.985Z,21.29
2017-09-20T00:02:40.953Z,21.21
2017-09-20T00:03:49.951Z,21.28
2017-09-20T00:04:58.914Z,21.24
2017-09-20T00:06:07.882Z,21.21
2017-09-20T00:07:17.212Z,21.22
2017-09-20T00:08:26.483Z,21.24
2017-09-20T00:09:35.496Z,21.25
2017-09-20T00:10:44.151Z,21.25
2017-09-20T00:11:52.817Z,21.16
2017-09-20T00:13:01.807Z,21.17
2017-09-20T00:14:10.777Z,21.27
2017-09-20T00:15:20.052Z,21.21
2017-09-20T00:16:29.016Z,21.21
2017-09-20T00:17:37.985Z,21.19
2017-09-20T00:18:47.287Z,21.28
2017-09-20T00:19:56.250Z,21.22
2017-09-20T00:21:05.269Z,21.21
2017-09-20T00:22:13.920Z,21.28
2017-09-20T00:23:23.203Z,21.17
2017-09-20T00:24:32.795Z,21.27
2017-09-20T00:25:41.773Z,21.17
2017-09-20T00:26:50.742Z,21.24
2017-09-20T00:27:59.709Z,21.21
2017-09-20T00:29:08.689Z,21.14
2017-09-20T00:30:17.973Z,21.22
2017-09-20T00:31:27.271Z,21.19
2017-09-20T00:32:36.252Z,21.27
2017-09-20T00:33:45.536Z,21.28
2017-09-20T00:34:54.516Z,21.27
2017-09-20T00:36:03.479Z,21.27
2017-09-20T00:37:12.136Z,21.28
2017-09-20T00:38:21.113Z,21.21
2017-09-20T00:39:30.070Z,21.27
2017-09-20T00:40:39.378Z,21.27
2017-09-20T00:41:47.986Z,21.21
2017-09-20T00:42:56.634Z,21.24
2017-09-20T00:44:05.280Z,21.25
2017-09-20T00:45:14.241Z,21.27
2017-09-20T00:46:22.895Z,21.17
2017-09-20T00:47:32.194Z,21.27
2017-09-20T00:48:40.843Z,21.19
2017-09-20T00:49:49.832Z,21.28
2017-09-20T00:50:59.135Z,21.21
2017-09-20T00:52:07.790Z,21.22
2017-09-20T00:53:16.446Z,21.19
2017-09-20T00:54:25.094Z,21.21
2017-09-20T00:55:34.070Z,21.22
2017-09-20T00:56:42.732Z,21.21
2017-09-20T00:57:51.716Z,21.19
2017-09-20T00:59:00.376Z,21.22
2017-09-20T01:00:09.036Z,21.19
2017-09-20T01:01:18.311Z,21.27
2017-09-20T01:02:27.598Z,21.22
2017-09-20T01:03:36.641Z,21.17
2017-09-20T01:04:45.620Z,21.17
2017-09-20T01:05:54.603Z,21.22
2017-09-20T01:07:03.885Z,21.22
2017-09-20T01:08:13.179Z,21.28
2017-09-20T01:09:22.154Z,21.27
2017-09-20T01:10:30.798Z,21.24
2017-09-20T01:11:39.780Z,21.19
2017-09-20T01:12:48.756Z,21.25
2017-09-20T01:13:58.357Z,21.22
2017-09-20T01:15:07.343Z,21.27
2017-09-20T01:16:17.265Z,21.21
2017-09-20T01:17:26.255Z,21.27
2017-09-20T01:18:35.563Z,21.24
2017-09-20T01:19:44.521Z,21.25
2017-09-20T01:20:53.167Z,21.27
2017-09-20T01:22:02.148Z,21.13
2017-09-20T01:23:12.057Z,21.25
2017-09-20T01:24:21.034Z,21.14
2017-09-20T01:25:30.337Z,21.21
2017-09-20T01:26:39.303Z,21.16
2017-09-20T01:27:47.953Z,21.21
2017-09-20T01:28:57.274Z,21.19
2017-09-20T01:30:06.237Z,21.13
2017-09-20T01:31:15.206Z,21.25
2017-09-20T01:32:24.187Z,21.22
2017-09-20T01:33:33.166Z,21.17
2017-09-20T01:34:42.150Z,21.17
2017-09-20T01:35:51.114Z,21.21
2017-09-20T01:37:00.084Z,21.25
2017-09-20T01:38:10.031Z,21.19
2017-09-20T01:39:18.987Z,21.19
2017-09-20T01:40:28.296Z,21.21
2017-09-20T01:41:37.611Z,21.19
2017-09-20T01:42:46.587Z,21.16
2017-09-20T01:43:55.874Z,21.19
2017-09-20T01:45:04.529Z,21.16
2017-09-20T01:46:13.501Z,21.16
2017-09-20T01:47:22.481Z,21.27
2017-09-20T01:48:31.790Z,21.19
2017-09-20T01:49:41.067Z,21.13
2017-09-20T01:50:50.046Z,21.16
2017-09-20T01:51:59.027Z,21.16
2017-09-20T01:53:07.987Z,21.19
2017-09-20T01:54:16.981Z,21.19
2017-09-20T01:55:25.956Z,21.19
2017-09-20T01:56:34.627Z,21.24
2017-09-20T01:57:43.583Z,21.19
2017-09-20T01:58:53.175Z,21.16
2017-09-20T02:00:02.151Z,21.16
2017-09-20T02:01:11.109Z,21.14
2017-09-20T02:02:20.722Z,21.21
2017-09-20T02:03:29.693Z,21.17
2017-09-20T02:04:38.653Z,21.16
2017-09-20T02:05:47.293Z,21.16
2017-09-20T02:06:56.588Z,21.19
2017-09-20T02:08:05.235Z,21.16
2017-09-20T02:09:14.522Z,21.14
2017-09-20T02:10:23.811Z,21.21
2017-09-20T02:11:32.800Z,21.19
2017-09-20T02:12:42.066Z,21.16
2017-09-20T02:13:51.028Z,21.14
2017-09-20T02:14:59.671Z,21.14
2017-09-20T02:16:09.264Z,21.12
2017-09-20T02:17:17.908Z,21.16
2017-09-20T02:18:27.183Z,21.16
2017-09-20T02:19:36.158Z,21.1
2017-09-20T02:20:45.446Z,21.14
2017-09-20T02:21:55.028Z,21.14
2017-09-20T02:23:03.997Z,21.22
2017-09-20T02:24:13.146Z,21.16
2017-09-20T02:25:22.105Z,21.13
2017-09-20T02:26:30.768Z,21.13
2017-09-20T02:27:40.043Z,21.16
2017-09-20T02:28:48.697Z,21.14
2017-09-20T02:29:57.982Z,21.16
2017-09-20T02:31:06.966Z,21.19
2017-09-20T02:32:16.244Z,21.16
2017-09-20T02:33:25.253Z,21.16
2017-09-20T02:34:34.225Z,21.16
2017-09-20T02:35:43.187Z,21.16
2017-09-20T02:36:52.159Z,21.17
2017-09-20T02:38:01.756Z,21.14
2017-09-20T02:39:11.043Z,21.16
2017-09-20T02:40:20.021Z,21.16
2017-09-20T02:41:29.301Z,21.16
2017-09-20T02:42:38.585Z,21.16
2017-09-20T02:43:47.234Z,21.19
2017-09-20T02:44:56.210Z,21.14
2017-09-20T02:46:05.529Z,21.16
2017-09-20T02:47:14.810Z,21.19
2017-09-20T02:48:24.106Z,21.16
2017-09-20T02:49:32.918Z,21.1
2017-09-20T02:50:41.886Z,21.14
2017-09-20T02:51:51.168Z,21.16
2017-09-20T02:53:00.141Z,21.14
2017-09-20T02:54:09.102Z,21.16
2017-09-20T02:55:18.084Z,21.12
2017-09-20T02:56:27.109Z,21.16
2017-09-20T02:57:36.071Z,21.12
2017-09-20T02:58:45.823Z,21.16
2017-09-20T02:59:54.785Z,21.24
2017-09-20T03:01:03.746Z,21.14
2017-09-20T03:02:13.350Z,21.13
2017-09-20T03:03:22.011Z,21.13
2017-09-20T03:04:30.966Z,21.12
2017-09-20T03:05:39.922Z,21.13
2017-09-20T03:06:49.528Z,21.09
2017-09-20T03:07:58.845Z,21.13
2017-09-20T03:09:07.818Z,21.14
2017-09-20T03:10:16.477Z,21.14
2017-09-20T03:11:25.775Z,21.17
2017-09-20T03:12:34.419Z,21.17
2017-09-20T03:13:43.408Z,21.16
2017-09-20T03:14:52.066Z,21.13
2017-09-20T03:16:00.787Z,21.13
2017-09-20T03:17:10.075Z,21.13
2017-09-20T03:18:19.041Z,21.13
2017-09-20T03:19:28.318Z,21.12
2017-09-20T03:20:36.974Z,21.13
2017-09-20T03:21:45.947Z,21.16
2017-09-20T03:22:54.966Z,21.1
2017-09-20T03:24:04.251Z,21.16
2017-09-20T03:25:13.223Z,21.06
2017-09-20T03:26:21.878Z,21.1
2017-09-20T03:27:30.833Z,21.07
2017-09-20T03:28:39.792Z,21.12
2017-09-20T03:29:48.767Z,21.13
2017-09-20T03:30:57.746Z,21.13
2017-09-20T03:32:06.745Z,21.13
2017-09-20T03:33:16.025Z,21.1
2017-09-20T03:34:24.984Z,21.13
2017-09-20T03:35:34.590Z,21.13
2017-09-20T03:36:43.877Z,21.13
2017-09-20T03:37:52.833Z,21.16
2017-09-20T03:39:02.120Z,21.1
2017-09-20T03:40:11.083Z,21.13
2017-09-20T03:41:20.082Z,21.12
2017-09-20T03:42:29.681Z,21.13
2017-09-20T03:43:38.337Z,21.04
2017-09-20T03:44:47.932Z,21.14
2017-09-20T03:45:56.893Z,21.12
2017-09-20T03:47:05.884Z,21.16
2017-09-20T03:48:14.538Z,21.14
2017-09-20T03:49:24.148Z,21.09
2017-09-20T03:50:34.046Z,21.14
2017-09-20T03:51:43.345Z,21.1
2017-09-20T03:52:52.966Z,21.14
2017-09-20T03:54:01.936Z,21.1
2017-09-20T03:55:10.587Z,21.13
2017-09-20T03:56:19.545Z,21.13
2017-09-20T03:57:28.522Z,21.17
2017-09-20T03:58:37.178Z,21.13
2017-09-20T03:59:46.146Z,21.13
2017-09-20T04:00:55.801Z,21.13
2017-09-20T04:02:04.788Z,21.16
2017-09-20T04:03:14.063Z,21.1
2017-09-20T04:04:23.109Z,21.13
2017-09-20T04:05:32.390Z,21.1
2017-09-20T04:06:41.683Z,21.14
2017-09-20T04:07:50.647Z,21.13
2017-09-20T04:08:59.615Z,21.07
2017-09-20T04:10:08.578Z,21.14
2017-09-20T04:11:17.218Z,21.13
2017-09-20T04:12:25.875Z,21.16
2017-09-20T04:13:35.141Z,21.09
2017-09-20T04:14:44.440Z,21.16
2017-09-20T04:15:53.719Z,21.14
2017-09-20T04:17:02.379Z,21.12
2017-09-20T04:18:11.336Z,21.03
2017-09-20T04:19:19.988Z,21.13
2017-09-20T04:20:28.953Z,21.09
2017-09-20T04:21:37.919Z,21.09
2017-09-20T04:22:46.572Z,21.12
2017-09-20T04:23:55.871Z,21.1
2017-09-20T04:25:05.486Z,21.06
2017-09-20T04:26:14.142Z,21.06
2017-09-20T04:27:22.819Z,21.13
2017-09-20T04:28:31.840Z,21.09
2017-09-20T04:29:41.127Z,21.09
2017-09-20T04:30:50.113Z,21.12
2017-09-20T04:31:58.768Z,21.13
2017-09-20T04:33:08.063Z,21.14
2017-09-20T04:34:16.713Z,21.12
2017-09-20T04:35:26.007Z,21.13
2017-09-20T04:36:35.306Z,21.12
2017-09-20T04:37:44.580Z,21.1
2017-09-20T04:38:53.556Z,21.1
2017-09-20T04:40:02.268Z,21.14
2017-09-20T04:41:11.230Z,21.12
2017-09-20T04:42:20.531Z,21.07
2017-09-20T04:43:29.812Z,21.13
2017-09-20T04:44:39.094Z,21.06
2017-09-20T04:45:48.145Z,21.16
2017-09-20T04:46:58.128Z,21.13
2017-09-20T04:48:07.209Z,21.13
2017-09-20T04:49:15.948Z,21.16
2017-09-20T04:50:25.037Z,21.17
2017-09-20T04:51:34.239Z,21.09
2017-09-20T04:52:43.960Z,21.13
2017-09-20T04:53:53.694Z,21.14
2017-09-20T04:55:03.065Z,21.1
2017-09-20T04:56:12.116Z,21.16
2017-09-20T04:57:21.482Z,21.13
2017-09-20T04:58:30.160Z,21.1
2017-09-20T04:59:39.179Z,21.1
2017-09-20T05:00:48.170Z,21.07
2017-09-20T05:01:57.152Z,21.13
2017-09-20T05:03:06.442Z,21.1
2017-09-20T05:04:15.194Z,21.1
2017-09-20T05:05:24.881Z,21.12
2017-09-20T05:06:33.878Z,21.12
2017-09-20T05:07:43.182Z,21.21
2017-09-20T05:08:51.864Z,21.21
2017-09-20T05:10:01.463Z,21.21
2017-09-20T05:11:10.439Z,21.19
2017-09-20T05:12:19.126Z,21.17
2017-09-20T05:13:28.193Z,21.22
2017-09-20T05:14:37.550Z,21.21
2017-09-20T05:15:46.900Z,21.19
2017-09-20T05:16:55.929Z,21.27
2017-09-20T05:18:04.930Z,21.21
2017-09-20T05:19:13.592Z,21.24
2017-09-20T05:20:22.297Z,21.24
2017-09-20T05:21:32.583Z,21.35
2017-09-20T05:22:41.641Z,21.35
2017-09-20T05:23:51.004Z,21.25
2017-09-20T05:25:00.646Z,21.37
2017-09-20T05:26:09.330Z,21.37
2017-09-20T05:27:18.640Z,21.35
2017-09-20T05:28:27.614Z,21.32
2017-09-20T05:29:36.592Z,21.34
2017-09-20T05:30:46.524Z,21.42
2017-09-20T05:31:56.130Z,21.38
2017-09-20T05:33:05.414Z,21.43
2017-09-20T05:34:14.720Z,21.43
2017-09-20T05:35:23.750Z,21.47
2017-09-20T05:36:33.388Z,21.44
2017-09-20T05:37:42.372Z,21.52
2017-09-20T05:38:51.369Z,21.58
2017-09-20T05:40:00.036Z,21.53
2017-09-20T05:41:09.332Z,21.58
2017-09-20T05:42:18.329Z,21.58
2017-09-20T05:43:27.666Z,21.59
2017-09-20T05:44:36.962Z,21.61
2017-09-20T05:45:45.676Z,21.61
2017-09-20T05:46:54.689Z,21.61
2017-09-20T05:48:03.433Z,21.64
2017-09-20T05:49:12.445Z,21.71
2017-09-20T05:50:21.474Z,21.65
2017-09-20T05:51:30.473Z,21.64
2017-09-20T05:52:39.453Z,21.65
2017-09-20T05:53:48.738Z,21.74
2017-09-20T05:54:57.707Z,21.74
2017-09-20T05:56:06.706Z,21.68
2017-09-20T05:57:16.369Z,21.68
2017-09-20T05:58:25.373Z,21.74
2017-09-20T05:59:34.051Z,21.77
2017-09-20T06:00:42.735Z,21.71
2017-09-20T06:01:52.027Z,21.8
2017-09-20T06:03:01.327Z,21.71
2017-09-20T06:04:10.630Z,21.72
2017-09-20T06:05:19.946Z,21.72
2017-09-20T06:06:29.236Z,21.74
2017-09-20T06:07:38.549Z,21.75
2017-09-20T06:08:47.214Z,21.74
2017-09-20T06:09:56.182Z,21.75
2017-09-20T06:11:05.475Z,21.69
2017-09-20T06:12:14.502Z,21.74
2017-09-20T06:13:23.163Z,21.64
2017-09-20T06:14:32.773Z,21.68
2017-09-20T06:15:42.067Z,21.71
2017-09-20T06:16:51.395Z,21.74
2017-09-20T06:18:01.089Z,21.67
2017-09-20T06:19:09.766Z,21.68
2017-09-20T06:20:19.055Z,21.67
2017-09-20T06:21:28.659Z,21.68
2017-09-20T06:22:37.656Z,21.71
2017-09-20T06:23:47.259Z,21.67
2017-09-20T06:24:56.230Z,21.67
2017-09-20T06:26:05.514Z,21.65
2017-09-20T06:27:14.506Z,21.74
2017-09-20T06:28:23.872Z,21.65
2017-09-20T06:29:32.882Z,21.71
2017-09-20T06:30:41.860Z,21.64
2017-09-20T06:31:50.522Z,21.65
2017-09-20T06:32:59.861Z,21.67
2017-09-20T06:34:08.559Z,21.71
2017-09-20T06:35:17.886Z,21.79
2017-09-20T06:36:27.516Z,21.65
2017-09-20T06:37:37.133Z,21.69
2017-09-20T06:38:45.799Z,21.68
2017-09-20T06:39:54.790Z,21.74
2017-09-20T06:41:03.794Z,21.75
2017-09-20T06:42:12.461Z,21.74
2017-09-20T06:43:21.773Z,21.65
2017-09-20T06:44:31.408Z,21.71
2017-09-20T06:45:40.722Z,21.61
2017-09-20T06:46:49.390Z,21.77
2017-09-20T06:47:58.384Z,21.67
2017-09-20T06:49:07.693Z,21.77
2017-09-20T06:50:17.000Z,21.68
2017-09-20T06:51:26.677Z,21.67
2017-09-20T06:52:35.988Z,21.72
2017-09-20T06:53:45.606Z,21.71
2017-09-20T06:54:54.636Z,21.68
2017-09-20T06:56:03.976Z,21.62
2017-09-20T06:57:12.953Z,21.67
2017-09-20T06:58:21.660Z,21.64
2017-09-20T06:59:30.342Z,21.64
2017-09-20T07:00:39.324Z,21.65
2017-09-20T07:01:48.633Z,21.62
2017-09-20T07:02:57.707Z,21.65
2017-09-20T07:04:06.698Z,21.64
2017-09-20T07:05:15.764Z,21.68
2017-09-20T07:06:24.802Z,21.68
2017-09-20T07:07:34.435Z,21.67
2017-09-20T07:08:44.066Z,21.65
2017-09-20T07:09:52.750Z,21.61
2017-09-20T07:11:01.722Z,21.64
2017-09-20T07:12:10.395Z,21.65
2017-09-20T07:13:19.741Z,21.67
2017-09-20T07:14:28.423Z,21.68
2017-09-20T07:15:37.469Z,21.67
2017-09-20T07:16:46.473Z,21.62
2017-09-20T07:17:55.782Z,21.67
2017-09-20T07:19:04.778Z,21.67
2017-09-20T07:20:13.845Z,21.62
2017-09-20T07:21:22.862Z,21.64
2017-09-20T07:22:32.199Z,21.58
2017-09-20T07:23:40.944Z,21.71
2017-09-20T07:24:50.251Z,21.67
2017-09-20T07:25:59.232Z,21.64
2017-09-20T07:27:08.286Z,21.74
2017-09-20T07:28:18.228Z,21.65
2017-09-20T07:29:27.232Z,21.65
2017-09-20T07:30:35.915Z,21.68
2017-09-20T07:31:45.261Z,21.71
2017-09-20T07:32:53.935Z,21.71
2017-09-20T07:34:02.933Z,21.74
2017-09-20T07:35:11.602Z,21.67
2017-09-20T07:36:20.919Z,21.71
2017-09-20T07:37:29.908Z,21.79
2017-09-20T07:38:38.576Z,21.69
2017-09-20T07:39:47.554Z,21.69
2017-09-20T07:40:56.525Z,21.74
2017-09-20T07:42:06.456Z,21.69
2017-09-20T07:43:15.748Z,21.71
2017-09-20T07:44:25.445Z,21.77
2017-09-20T07:45:34.161Z,21.75
2017-09-20T07:46:43.150Z,21.77
2017-09-20T07:47:52.158Z,21.8
2017-09-20T07:49:01.137Z,21.84
2017-09-20T07:50:10.208Z,21.92
2017-09-20T07:51:19.829Z,21.9
2017-09-20T07:52:28.810Z,21.96
2017-09-20T07:53:38.123Z,22.02
2017-09-20T07:54:47.162Z,21.92
2017-09-20T07:55:55.869Z,21.99
2017-09-20T07:57:04.850Z,22.02
2017-09-20T07:58:14.475Z,22.03
2017-09-20T07:59:23.216Z,21.99
2017-09-20T08:00:32.521Z,22
2017-09-20T08:01:41.860Z,21.98
2017-09-20T08:02:51.160Z,22.1
2017-09-20T08:04:00.453Z,22.03
2017-09-20T08:05:09.454Z,22.09
2017-09-20T08:06:18.445Z,22.12
2017-09-20T08:07:27.449Z,22.17
2017-09-20T08:08:36.115Z,22.17
2017-09-20T08:09:45.406Z,22.21
2017-09-20T08:10:54.717Z,22.2
2017-09-20T08:12:03.725Z,22.22
2017-09-20T08:13:12.752Z,22.27
2017-09-20T08:14:21.767Z,22.27
2017-09-20T08:15:30.517Z,22.22
2017-09-20T08:16:39.346Z,22.24
2017-09-20T08:17:48.196Z,22.21
2017-09-20T08:18:57.215Z,22.22
2017-09-20T08:20:05.942Z,22.21
2017-09-20T08:21:14.969Z,22.17
2017-09-20T08:22:24.611Z,22.2
2017-09-20T08:23:33.285Z,22.17
2017-09-20T08:24:42.280Z,22.14
2017-09-20T08:25:51.665Z,22.09
2017-09-20T08:27:00.649Z,22.17
2017-09-20T08:28:09.338Z,22.12
2017-09-20T08:29:18.014Z,22.2
2017-09-20T08:30:27.172Z,22.03
2017-09-20T08:31:36.240Z,22.14
2017-09-20T08:32:44.958Z,22.17
2017-09-20T08:33:53.940Z,22.24
2017-09-20T08:35:02.630Z,22.09
2017-09-20T08:36:11.936Z,22.05
2017-09-20T08:37:20.637Z,22.12
2017-09-20T08:38:29.633Z,22.02
2017-09-20T08:39:38.299Z,22.05
2017-09-20T08:40:47.281Z,22.14
2017-09-20T08:41:56.600Z,22.06
2017-09-20T08:43:05.568Z,22.1
2017-09-20T08:44:14.541Z,22.07
2017-09-20T08:45:24.155Z,21.94
2017-09-20T08:46:32.833Z,22.1
2017-09-20T08:47:42.112Z,21.98
2017-09-20T08:48:50.785Z,21.99
2017-09-20T08:50:00.087Z,22.07
2017-09-20T08:51:09.076Z,22.06
2017-09-20T08:52:18.057Z,22.07
2017-09-20T08:53:27.044Z,22.1
2017-09-20T08:54:35.699Z,22.15
2017-09-20T08:55:44.994Z,22.24
2017-09-20T08:56:54.644Z,22.27
2017-09-20T08:58:04.045Z,22.24
2017-09-20T08:59:13.047Z,22.25
2017-09-20T09:00:22.031Z,22.2
2017-09-20T09:01:31.427Z,22.27
2017-09-20T09:02:40.161Z,22.31
2017-09-20T09:03:49.450Z,22.36
2017-09-20T09:04:58.119Z,22.33
2017-09-20T09:06:06.796Z,22.39
2017-09-20T09:07:16.113Z,22.43
2017-09-20T09:08:24.783Z,22.45
2017-09-20T09:09:33.450Z,22.46
2017-09-20T09:10:42.766Z,22.45
2017-09-20T09:11:52.076Z,22.45
2017-09-20T09:13:01.372Z,22.39
2017-09-20T09:14:10.366Z,22.45
2017-09-20T09:15:19.365Z,22.46
2017-09-20T09:16:28.373Z,22.45
2017-09-20T09:17:37.997Z,22.45
2017-09-20T09:18:46.669Z,22.46
2017-09-20T09:19:55.975Z,22.4
2017-09-20T09:21:04.629Z,22.43
2017-09-20T09:22:13.305Z,22.46
2017-09-20T09:23:22.598Z,22.43
2017-09-20T09:24:31.280Z,22.46
2017-09-20T09:25:40.267Z,22.42
2017-09-20T09:26:49.660Z,22.45
2017-09-20T09:27:58.999Z,22.4
2017-09-20T09:29:08.656Z,22.46
2017-09-20T09:30:17.645Z,22.46
2017-09-20T09:31:26.622Z,22.45
2017-09-20T09:32:35.810Z,22.52
2017-09-20T09:33:44.826Z,22.49
2017-09-20T09:34:53.531Z,22.51
2017-09-20T09:36:02.236Z,22.49
2017-09-20T09:37:11.275Z,22.58
2017-09-20T09:38:21.213Z,22.57
2017-09-20T09:39:30.192Z,22.57
2017-09-20T09:40:39.483Z,22.57
2017-09-20T09:41:48.489Z,22.55
2017-09-20T09:42:57.494Z,22.58
2017-09-20T09:44:06.552Z,22.52
2017-09-20T09:45:15.615Z,22.54
2017-09-20T09:46:24.604Z,22.51
2017-09-20T09:47:34.235Z,22.54
2017-09-20T09:48:42.910Z,22.55
2017-09-20T09:49:52.212Z,22.55
2017-09-20T09:51:01.201Z,22.58
2017-09-20T09:52:09.860Z,22.49
2017-09-20T09:53:19.168Z,22.51
2017-09-20T09:54:28.483Z,22.52
2017-09-20T09:55:37.813Z,22.49
2017-09-20T09:56:46.800Z,22.52
2017-09-20T09:57:55.796Z,22.58
2017-09-20T09:59:05.412Z,22.55
2017-09-20T10:00:14.089Z,22.4
2017-09-20T10:01:23.387Z,22.43
2017-09-20T10:02:32.450Z,22.52
2017-09-20T10:03:41.125Z,22.54
2017-09-20T10:04:50.421Z,22.49
2017-09-20T10:05:59.136Z,22.6
2017-09-20T10:07:07.815Z,22.51
2017-09-20T10:08:17.125Z,22.49
2017-09-20T10:09:26.432Z,22.52
2017-09-20T10:10:35.499Z,22.54
2017-09-20T10:11:44.485Z,22.51
2017-09-20T10:12:53.779Z,22.39
2017-09-20T10:14:02.458Z,22.4
2017-09-20T10:15:11.470Z,22.43
2017-09-20T10:16:20.826Z,22.45
2017-09-20T10:17:29.904Z,22.36
2017-09-20T10:18:39.552Z,22.46
2017-09-20T10:19:48.548Z,22.47
2017-09-20T10:20:57.530Z,22.45
2017-09-20T10:22:06.203Z,22.39
2017-09-20T10:23:15.199Z,22.39
2017-09-20T10:24:24.302Z,22.36
2017-09-20T10:25:33.331Z,22.4
2017-09-20T10:26:42.445Z,22.37
2017-09-20T10:27:51.735Z,22.43
2017-09-20T10:29:00.769Z,22.39
2017-09-20T10:30:09.763Z,22.37
2017-09-20T10:31:18.778Z,22.42
2017-09-20T10:32:27.818Z,22.42
2017-09-20T10:33:36.636Z,22.49
2017-09-20T10:34:45.633Z,22.46
2017-09-20T10:35:54.311Z,22.47
2017-09-20T10:37:02.994Z,22.39
2017-09-20T10:38:12.639Z,22.43
2017-09-20T10:39:21.630Z,22.45
2017-09-20T10:40:30.319Z,22.43
2017-09-20T10:41:39.646Z,22.49
2017-09-20T10:42:48.647Z,22.54
2017-09-20T10:43:57.334Z,22.54
2017-09-20T10:45:05.983Z,22.45
2017-09-20T10:46:14.679Z,22.4
2017-09-20T10:47:23.357Z,22.36
2017-09-20T10:48:32.648Z,22.4
2017-09-20T10:49:41.635Z,22.47
2017-09-20T10:50:50.373Z,22.45
2017-09-20T10:51:59.662Z,22.49
2017-09-20T10:53:08.664Z,22.45
2017-09-20T10:54:17.657Z,22.47
2017-09-20T10:55:26.972Z,22.45
2017-09-20T10:56:36.583Z,22.45
2017-09-20T10:57:46.215Z,22.46
2017-09-20T10:58:55.859Z,22.43
2017-09-20T11:00:05.158Z,22.47
2017-09-20T11:01:14.457Z,22.45
2017-09-20T11:02:23.129Z,22.43
2017-09-20T11:03:31.791Z,22.45
2017-09-20T11:04:42.049Z,22.46
2017-09-20T11:05:51.038Z,22.45
2017-09-20T11:07:00.041Z,22.46
2017-09-20T11:08:08.749Z,22.51
2017-09-20T11:09:17.752Z,22.37
2017-09-20T11:10:27.066Z,22.45
2017-09-20T11:11:36.053Z,22.39
2017-09-20T11:12:45.353Z,22.36
2017-09-20T11:13:54.679Z,22.43
2017-09-20T11:15:03.978Z,22.43
2017-09-20T11:16:12.987Z,22.47
2017-09-20T11:17:22.307Z,22.39
2017-09-20T11:18:31.282Z,22.47
2017-09-20T11:19:40.283Z,22.4
2017-09-20T11:20:49.296Z,22.37
2017-09-20T11:21:58.944Z,22.49
2017-09-20T11:23:08.270Z,22.55
2017-09-20T11:24:17.567Z,22.46
2017-09-20T11:25:26.554Z,22.47
2017-09-20T11:26:35.854Z,22.46
2017-09-20T11:27:44.840Z,22.54
2017-09-20T11:28:54.469Z,22.42
2017-09-20T11:30:03.461Z,22.45
2017-09-20T11:31:12.140Z,22.58
2017-09-20T11:32:21.442Z,22.57
2017-09-20T11:33:30.448Z,22.54
2017-09-20T11:34:39.491Z,22.54
2017-09-20T11:35:48.490Z,22.58
2017-09-20T11:36:57.148Z,22.61
2017-09-20T11:38:06.774Z,22.51
2017-09-20T11:39:16.076Z,22.51
2017-09-20T11:40:25.083Z,22.61
2017-09-20T11:41:33.757Z,22.62
2017-09-20T11:42:42.465Z,22.57
2017-09-20T11:43:51.419Z,22.55
2017-09-20T11:45:00.727Z,22.55
2017-09-20T11:46:09.704Z,22.55
2017-09-20T11:47:18.687Z,22.54
2017-09-20T11:48:27.993Z,22.64
2017-09-20T11:49:37.619Z,22.55
2017-09-20T11:50:46.990Z,22.57
2017-09-20T11:51:55.682Z,22.52
2017-09-20T11:53:04.367Z,22.57
2017-09-20T11:54:13.376Z,22.61
2017-09-20T11:55:22.056Z,22.58
2017-09-20T11:56:31.369Z,22.55
2017-09-20T11:57:40.672Z,22.49
2017-09-20T11:58:49.977Z,22.52
2017-09-20T11:59:58.974Z,22.61
2017-09-20T12:01:08.290Z,22.55
2017-09-20T12:02:16.969Z,22.58
2017-09-20T12:03:25.955Z,22.6
2017-09-20T12:04:35.265Z,22.51
2017-09-20T12:05:44.014Z,22.54
2017-09-20T12:06:53.023Z,22.4
2017-09-20T12:08:02.070Z,22.47
2017-09-20T12:09:11.364Z,22.45
2017-09-20T12:10:20.039Z,22.46
2017-09-20T12:11:29.013Z,22.47
2017-09-20T12:12:37.995Z,22.45
2017-09-20T12:13:46.670Z,22.4
2017-09-20T12:14:55.979Z,22.4
2017-09-20T12:16:05.596Z,22.37
2017-09-20T12:17:14.921Z,22.42
2017-09-20T12:18:23.599Z,22.4
2017-09-20T12:19:32.271Z,22.42
2017-09-20T12:20:41.582Z,22.4
2017-09-20T12:21:50.274Z,22.4
2017-09-20T12:22:59.274Z,22.39
2017-09-20T12:24:08.893Z,22.42
2017-09-20T12:25:17.873Z,22.33
2017-09-20T12:26:26.548Z,22.25
2017-09-20T12:27:36.187Z,22.31
2017-09-20T12:28:44.865Z,22.33
2017-09-20T12:29:53.883Z,22.39
2017-09-20T12:31:03.205Z,22.33
2017-09-20T12:32:12.557Z,22.37
2017-09-20T12:33:21.637Z,22.36
2017-09-20T12:34:31.020Z,22.39
2017-09-20T12:35:40.366Z,22.36
2017-09-20T12:36:49.392Z,22.43
2017-09-20T12:37:58.102Z,22.45
2017-09-20T12:39:06.782Z,22.49
2017-09-20T12:40:15.858Z,22.37
2017-09-20T12:41:24.550Z,22.47
2017-09-20T12:42:33.855Z,22.45
2017-09-20T12:43:42.531Z,22.42
2017-09-20T12:44:51.525Z,22.37
2017-09-20T12:46:01.463Z,22.35
2017-09-20T12:47:10.456Z,22.4
2017-09-20T12:48:19.781Z,22.39
2017-09-20T12:49:29.108Z,22.35
2017-09-20T12:50:37.778Z,22.42
2017-09-20T12:51:47.074Z,22.31
2017-09-20T12:52:56.081Z,22.31
2017-09-20T12:54:05.715Z,22.28
2017-09-20T12:55:14.400Z,22.33
2017-09-20T12:56:23.697Z,22.31
2017-09-20T12:57:32.743Z,22.27
2017-09-20T12:58:41.734Z,22.35
2017-09-20T12:59:50.404Z,22.28
2017-09-20T13:00:59.087Z,22.25
2017-09-20T13:02:08.095Z,22.27
2017-09-20T13:03:17.425Z,22.28
2017-09-20T13:04:26.729Z,22.28
2017-09-20T13:05:35.725Z,22.27
2017-09-20T13:06:44.737Z,22.22
2017-09-20T13:07:53.779Z,22.28
2017-09-20T13:09:03.157Z,22.27
2017-09-20T13:10:11.848Z,22.27
2017-09-20T13:11:20.843Z,22.28
2017-09-20T13:12:29.534Z,22.27
2017-09-20T13:13:38.211Z,22.2
2017-09-20T13:14:47.212Z,22.25
2017-09-20T13:15:56.243Z,22.22
2017-09-20T13:17:04.911Z,22.24
2017-09-20T13:18:15.172Z,22.27
2017-09-20T13:19:24.485Z,22.27
2017-09-20T13:20:34.089Z,22.25
2017-09-20T13:21:43.069Z,22.25
2017-09-20T13:22:51.727Z,22.22
2017-09-20T13:24:00.764Z,22.25
2017-09-20T13:25:10.062Z,22.17
2017-09-20T13:26:18.734Z,22.22
2017-09-20T13:27:27.730Z,22.21
2017-09-20T13:28:36.708Z,22.25
2017-09-20T13:29:45.384Z,22.28
2017-09-20T13:30:54.692Z,22.27
2017-09-20T13:32:03.987Z,22.27
2017-09-20T13:33:12.652Z,22.22
2017-09-20T13:34:21.950Z,22.21
2017-09-20T13:35:30.615Z,22.25
2017-09-20T13:36:39.613Z,22.22
2017-09-20T13:37:48.629Z,22.21
2017-09-20T13:38:57.941Z,22.24
2017-09-20T13:40:06.940Z,22.22
2017-09-20T13:41:16.548Z,22.24
2017-09-20T13:42:25.548Z,22.25
2017-09-20T13:43:34.243Z,22.21
2017-09-20T13:44:43.224Z,22.25
2017-09-20T13:45:52.211Z,22.24
2017-09-20T13:47:01.207Z,22.3
2017-09-20T13:48:10.204Z,22.25
2017-09-20T13:49:19.221Z,22.31
2017-09-20T13:50:28.226Z,22.33
2017-09-20T13:51:37.907Z,22.24
2017-09-20T13:52:47.221Z,22.27
2017-09-20T13:53:55.899Z,22.25
2017-09-20T13:55:04.911Z,22.3
2017-09-20T13:56:13.930Z,22.31
2017-09-20T13:57:22.948Z,22.31
2017-09-20T13:58:31.942Z,22.31
2017-09-20T13:59:41.229Z,22.4
2017-09-20T14:00:50.229Z,22.3
2017-09-20T14:01:59.847Z,22.37
2017-09-20T14:03:08.838Z,22.4
2017-09-20T14:04:17.824Z,22.37
2017-09-20T14:05:27.440Z,22.39
2017-09-20T14:06:36.764Z,22.33
2017-09-20T14:07:45.423Z,22.35
2017-09-20T14:08:54.105Z,22.35
2017-09-20T14:10:03.123Z,22.37
2017-09-20T14:11:12.469Z,22.33
2017-09-20T14:12:21.461Z,22.37
2017-09-20T14:13:31.078Z,22.35
2017-09-20T14:14:39.771Z,22.39
2017-09-20T14:15:48.744Z,22.28
2017-09-20T14:16:58.381Z,22.36
2017-09-20T14:18:08.328Z,22.28
2017-09-20T14:19:17.321Z,22.3
2017-09-20T14:20:26.618Z,22.25
2017-09-20T14:21:35.953Z,22.28
2017-09-20T14:22:45.242Z,22.27
2017-09-20T14:23:54.542Z,22.31
2017-09-20T14:25:03.545Z,22.28
2017-09-20T14:26:12.527Z,22.35
2017-09-20T14:27:21.813Z,22.28
2017-09-20T14:28:30.799Z,22.36
2017-09-20T14:29:40.429Z,22.35
2017-09-20T14:30:50.054Z,22.31
2017-09-20T14:31:59.346Z,22.31
2017-09-20T14:33:08.122Z,22.35
2017-09-20T14:34:16.853Z,22.28
2017-09-20T14:35:26.084Z,22.3
2017-09-20T14:36:34.766Z,22.28
2017-09-20T14:37:43.445Z,22.25
2017-09-20T14:38:52.784Z,22.24
2017-09-20T14:40:01.463Z,22.28
2017-09-20T14:41:10.435Z,22.22
2017-09-20T14:42:19.475Z,22.27
2017-09-20T14:43:28.449Z,22.21
2017-09-20T14:44:37.773Z,22.36
2017-09-20T14:45:47.066Z,22.27
2017-09-20T14:46:55.771Z,22.27
2017-09-20T14:48:05.078Z,22.28
2017-09-20T14:49:13.763Z,22.3
2017-09-20T14:50:23.422Z,22.3
2017-09-20T14:51:32.414Z,22.33